Time;durP1;ratioP1;P1;durP2;ratioP2;P2;SDS_P1;SDS_P2;PMS_P1;PMS_P2;Temp;Humidity;BMP_temperature;BMP_pressure;BME280_temperature;BME280_humidity;BME280_pressure;Samples;Min_cycle;Max_cycle;Signal;HPM_P1;HPM_P2
2023/05/31 00:01:17;;;;;;;12.00;4.87;;;;;;;22.12;56.98;98270.63;4439719;32;20152;-84
2023/05/31 00:03:44;;;;;;;12.30;5.18;;;;;;;22.93;54.15;98260.84;4439546;32;20114;-84
2023/05/31 00:06:12;;;;;;;15.40;5.70;;;;;;;23.02;53.43;98265.28;4439765;32;20089;-84
2023/05/31 00:08:39;;;;;;;12.05;5.18;;;;;;;22.75;54.29;98264.13;4439741;32;20106;-84
2023/05/31 00:11:07;;;;;;;13.07;5.37;;;;;;;22.60;54.81;98264.66;4439245;32;20444;-84
2023/05/31 00:13:34;;;;;;;14.20;5.60;;;;;;;22.73;54.37;98270.50;4439559;32;20389;-84
2023/05/31 00:16:01;;;;;;;11.10;5.05;;;;;;;22.67;54.54;98271.06;4439274;32;20156;-84
2023/05/31 00:18:28;;;;;;;14.02;5.35;;;;;;;22.36;55.36;98273.75;4439562;32;20101;-84
2023/05/31 00:20:55;;;;;;;11.63;5.70;;;;;;;22.53;55.18;98270.44;4439367;32;20472;-84
2023/05/31 00:23:22;;;;;;;11.40;5.28;;;;;;;22.38;55.36;98279.69;4439210;32;20137;-84
2023/05/31 00:25:49;;;;;;;11.15;5.57;;;;;;;22.47;55.15;98275.44;4439464;32;20141;-84
2023/05/31 00:28:16;;;;;;;13.07;5.30;;;;;;;22.28;55.82;98268.31;4439420;32;20121;-84
2023/05/31 00:30:43;;;;;;;15.40;5.60;;;;;;;22.42;55.48;98273.19;4439010;32;20089;-84
2023/05/31 00:33:11;;;;;;;10.73;4.95;;;;;;;23.22;52.56;98269.59;4440736;32;20077;-84
2023/05/31 00:35:38;;;;;;;13.02;4.90;;;;;;;22.86;53.42;98271.09;4441694;32;20116;-84
2023/05/31 00:38:07;;;;;;;11.70;5.37;;;;;;;22.52;54.79;98270.59;4441095;32;20098;-84
2023/05/31 00:40:34;;;;;;;13.65;5.80;;;;;;;22.11;56.13;98268.94;4441610;32;20108;-84
2023/05/31 00:43:01;;;;;;;13.68;5.75;;;;;;;22.31;55.30;98269.84;4441573;32;20089;-84
2023/05/31 00:45:32;;;;;;;16.70;5.65;;;;;;;21.28;57.34;98269.84;4440995;32;20093;-84
2023/05/31 00:48:02;;;;;;;11.20;5.32;;;;;;;21.89;55.79;98270.75;4427746;32;20181;-84
2023/05/31 00:50:30;;;;;;;12.73;5.50;;;;;;;21.91;55.84;98270.66;4441449;32;20097;-84
2023/05/31 00:52:57;;;;;;;12.43;5.10;;;;;;;22.88;53.06;98271.81;4441088;32;20416;-84
2023/05/31 00:55:24;;;;;;;12.80;5.30;;;;;;;23.38;52.57;98274.25;4427656;32;20124;-84
2023/05/31 00:57:51;;;;;;;13.38;5.53;;;;;;;23.46;52.94;98270.94;4441490;32;20094;-84
2023/05/31 01:00:18;;;;;;;11.30;5.43;;;;;;;23.22;53.30;98272.22;4440957;32;20094;-84
2023/05/31 01:02:45;;;;;;;10.55;5.55;;;;;;;22.53;55.70;98270.44;4441502;32;20455;-84
2023/05/31 01:05:13;;;;;;;11.73;5.40;;;;;;;22.51;56.29;98272.38;4441117;32;20097;-84
2023/05/31 01:07:39;;;;;;;14.52;5.20;;;;;;;21.58;58.03;98269.06;4441367;32;20140;-84
2023/05/31 01:10:07;;;;;;;12.57;5.25;;;;;;;21.37;57.76;98269.91;4441094;32;20140;-84
2023/05/31 01:13:05;;;;;;;12.75;5.18;;;;;;;22.07;56.08;98259.66;4441013;32;20428;-84
2023/05/31 01:15:45;;;;;;;12.20;5.20;;;;;;;22.23;56.21;98260.00;4423125;32;144073;-84
2023/05/31 01:18:32;;;;;;;14.13;5.20;;;;;;;22.76;54.63;98264.97;4427495;32;20127;-84
2023/05/31 01:21:05;;;;;;;13.73;5.32;;;;;;;22.56;53.34;98265.91;4427241;32;20576;-83
2023/05/31 01:23:37;;;;;;;11.32;5.40;;;;;;;21.97;54.00;98256.13;4428060;32;20094;-84
2023/05/31 01:26:23;;;;;;;14.65;5.40;;;;;;;21.98;54.29;98263.87;4441326;32;20117;-84
2023/05/31 01:28:54;;;;;;;12.52;5.15;;;;;;;22.51;53.03;98271.56;4441312;32;20489;-84
2023/05/31 01:31:21;;;;;;;12.43;5.25;;;;;;;22.36;53.47;98270.28;4427425;32;20515;-84
2023/05/31 01:33:52;;;;;;;13.18;5.15;;;;;;;22.25;52.92;98263.34;4440705;32;20085;-84
2023/05/31 01:36:19;;;;;;;14.57;5.32;;;;;;;22.43;52.46;98264.34;4427229;32;20125;-84
2023/05/31 01:38:46;;;;;;;11.12;5.32;;;;;;;22.11;53.33;98258.44;4440916;32;20464;-84
2023/05/31 01:41:13;;;;;;;14.73;5.90;;;;;;;22.30;53.03;98261.13;4440680;32;20140;-84
2023/05/31 01:43:41;;;;;;;11.25;5.12;;;;;;;22.15;53.67;98263.31;4426699;32;20405;-84
2023/05/31 01:46:09;;;;;;;14.87;5.15;;;;;;;22.55;52.40;98264.25;4441122;32;20098;-84
2023/05/31 01:48:37;;;;;;;13.88;5.78;;;;;;;22.22;53.73;98263.59;4440732;32;20109;-84
2023/05/31 01:51:06;;;;;;;11.38;5.03;;;;;;;22.34;52.96;98269.59;4427276;32;20152;-84
2023/05/31 01:53:33;;;;;;;11.38;5.30;;;;;;;23.08;51.99;98262.13;4427198;32;20169;-84
2023/05/31 01:56:01;;;;;;;13.25;5.10;;;;;;;23.21;53.26;98267.91;4440791;32;20137;-84
2023/05/31 01:58:30;;;;;;;12.80;5.70;;;;;;;23.81;52.68;98275.59;4441111;32;20156;-84
2023/05/31 02:00:58;;;;;;;12.00;5.80;;;;;;;23.32;54.00;98270.41;4427090;32;20160;-84
2023/05/31 02:03:26;;;;;;;12.88;4.62;;;;;;;23.01;54.72;98275.00;4440728;32;20090;-84
2023/05/31 02:06:00;;;;;;;11.30;5.05;;;;;;;23.78;51.84;98279.34;4441024;32;20113;-84
2023/05/31 02:08:27;;;;;;;11.57;4.87;;;;;;;23.37;52.84;98269.97;4440792;32;20131;-84
2023/05/31 02:10:54;;;;;;;14.02;5.22;;;;;;;23.14;53.63;98277.34;4440901;32;20096;-84
2023/05/31 02:13:26;;;;;;;12.20;5.40;;;;;;;23.16;53.13;98278.03;4440853;32;20089;-84
2023/05/31 02:15:55;;;;;;;12.25;5.03;;;;;;;23.32;52.81;98273.03;4440627;32;20534;-84
2023/05/31 02:18:22;;;;;;;11.00;4.57;;;;;;;22.83;53.78;98268.69;4440897;32;20111;-84
2023/05/31 02:20:49;;;;;;;11.15;5.22;;;;;;;22.63;52.48;98270.47;4440853;32;20088;-83
2023/05/31 02:23:16;;;;;;;12.40;5.07;;;;;;;22.01;52.18;98268.03;4440543;32;20081;-83
2023/05/31 02:25:50;;;;;;;11.27;5.00;;;;;;;21.15;54.63;98269.13;4440823;32;20094;-84
2023/05/31 02:28:17;;;;;;;10.25;4.40;;;;;;;21.48;53.68;98263.78;4440849;32;20161;-83
2023/05/31 02:30:56;;;;;;;14.87;5.37;;;;;;;21.69;53.72;98268.16;4440349;32;20501;-84
2023/05/31 02:33:24;;;;;;;12.32;4.93;;;;;;;21.40;54.22;98268.00;4440821;32;20090;-83
2023/05/31 02:35:51;;;;;;;23.67;5.32;;;;;;;21.73;53.43;98266.94;4440845;32;20211;-84
2023/05/31 02:38:21;;;;;;;13.90;5.07;;;;;;;22.61;52.00;98264.53;4440261;32;20115;-84
2023/05/31 02:40:48;;;;;;;12.73;4.87;;;;;;;23.32;52.37;98273.03;4440711;32;20212;-84
2023/05/31 02:43:15;;;;;;;12.20;5.80;;;;;;;23.39;52.29;98268.03;4440793;32;20587;-84
2023/05/31 02:45:42;;;;;;;11.25;4.97;;;;;;;22.83;53.99;98270.50;4440580;32;20086;-84
2023/05/31 02:48:09;;;;;;;13.38;5.80;;;;;;;22.82;54.20;98274.94;4440739;32;20197;-84
2023/05/31 02:50:36;;;;;;;12.95;5.28;;;;;;;23.11;52.89;98272.34;4440208;32;20085;-84
2023/05/31 02:53:06;;;;;;;11.48;4.90;;;;;;;22.70;54.12;98273.41;4440663;32;20089;-84
2023/05/31 02:55:33;;;;;;;11.73;5.30;;;;;;;23.06;53.16;98271.94;4439504;32;20440;-84
2023/05/31 02:58:00;;;;;;;12.13;5.25;;;;;;;22.93;53.20;98274.00;4440348;32;20108;-83
2023/05/31 03:00:27;;;;;;;13.32;5.28;;;;;;;22.63;54.44;98274.91;4440430;32;20143;-84
2023/05/31 03:02:54;;;;;;;12.50;5.32;;;;;;;23.32;51.93;98270.41;4440575;32;20402;-84
2023/05/31 03:05:23;;;;;;;11.70;5.30;;;;;;;22.65;53.67;98271.19;4440203;32;20412;-84
2023/05/31 03:07:50;;;;;;;12.60;5.37;;;;;;;22.23;54.38;98273.16;4440497;32;20112;-84
2023/05/31 03:10:17;;;;;;;12.57;5.45;;;;;;;22.11;54.58;98282.91;4440435;32;20096;-84
2023/05/31 03:12:44;;;;;;;12.27;5.18;;;;;;;22.51;53.91;98279.44;4440097;32;20437;-84
2023/05/31 03:15:12;;;;;;;11.75;5.37;;;;;;;22.46;52.75;98277.22;4440360;32;20097;-84
2023/05/31 03:17:39;;;;;;;10.20;5.18;;;;;;;23.05;51.69;98284.25;4440413;32;20436;-84
2023/05/31 03:20:10;;;;;;;12.10;5.12;;;;;;;22.79;52.22;98281.31;4439885;32;20507;-84
2023/05/31 03:22:37;;;;;;;10.43;4.85;;;;;;;22.67;52.80;98289.47;4440483;32;20534;-84
2023/05/31 03:25:05;;;;;;;12.95;5.15;;;;;;;22.33;52.94;98284.53;4440332;32;20101;-84
2023/05/31 03:27:32;;;;;;;12.02;5.18;;;;;;;22.29;52.84;98290.19;4440005;32;20211;-84
2023/05/31 03:30:00;;;;;;;10.48;4.70;;;;;;;22.99;50.32;98290.09;4440220;32;20376;-84
2023/05/31 03:32:27;;;;;;;11.30;5.15;;;;;;;22.45;51.32;98298.41;4440005;32;20157;-84
2023/05/31 03:34:54;;;;;;;11.07;4.97;;;;;;;22.17;51.76;98286.81;4440086;32;20093;-83
2023/05/31 03:37:21;;;;;;;11.68;5.53;;;;;;;21.56;53.09;98292.00;4440147;32;20100;-84
2023/05/31 03:39:48;;;;;;;14.13;5.25;;;;;;;22.33;51.48;98281.91;4439643;32;20182;-83
2023/05/31 03:42:15;;;;;;;10.88;5.20;;;;;;;22.93;51.89;98295.06;4440128;32;20090;-83
2023/05/31 03:44:43;;;;;;;11.30;5.80;;;;;;;23.20;52.15;98300.47;4440140;32;20098;-84
2023/05/31 03:47:11;;;;;;;13.55;4.85;;;;;;;23.51;51.71;98300.31;4439776;32;20109;-84
2023/05/31 03:49:37;;;;;;;11.30;5.35;;;;;;;23.41;52.09;98302.97;4440001;32;20085;-84
2023/05/31 03:52:05;;;;;;;16.83;5.15;;;;;;;23.35;52.11;98309.59;4440016;32;20662;-84
2023/05/31 03:54:32;;;;;;;10.10;4.62;;;;;;;23.30;51.52;98306.56;4439879;32;20097;-84
2023/05/31 03:57:00;;;;;;;11.60;5.15;;;;;;;23.11;50.99;98308.37;4439906;32;20455;-84
2023/05/31 03:59:27;;;;;;;11.30;4.90;;;;;;;22.93;50.33;98301.16;4455180;32;20089;-83
2023/05/31 04:01:54;;;;;;;12.13;5.93;;;;;;;23.17;49.74;98307.81;4455058;32;20073;-83
2023/05/31 04:04:22;;;;;;;12.05;5.28;;;;;;;23.76;51.73;98314.72;4455248;32;20097;-83
2023/05/31 04:06:49;;;;;;;10.73;5.55;;;;;;;23.88;52.14;98313.59;4455458;32;20154;-83
2023/05/31 04:09:17;;;;;;;11.82;5.40;;;;;;;23.73;52.49;98309.75;4456817;32;20104;-84
2023/05/31 04:11:45;;;;;;;12.13;5.22;;;;;;;24.38;51.07;98310.66;4457395;32;20077;-84
2023/05/31 04:14:12;;;;;;;13.93;5.32;;;;;;;23.67;52.46;98313.75;4457165;32;20090;-84
2023/05/31 04:16:39;;;;;;;11.93;5.55;;;;;;;24.31;50.42;98320.12;4456915;32;20101;-84
2023/05/31 04:19:06;;;;;;;12.37;5.60;;;;;;;23.67;51.66;98329.56;4457135;32;20499;-84
2023/05/31 04:21:33;;;;;;;12.32;5.30;;;;;;;24.06;51.04;98325.06;4456851;32;20361;-84
2023/05/31 04:24:01;;;;;;;13.30;5.22;;;;;;;23.95;51.56;98319.94;4457167;32;20097;-84
2023/05/31 04:26:29;;;;;;;12.57;4.95;;;;;;;24.50;48.16;98320.88;4457258;32;20089;-83
2023/05/31 04:28:57;;;;;;;12.88;5.60;;;;;;;24.14;49.98;98333.06;4456688;32;20175;-84
2023/05/31 04:31:24;;;;;;;13.02;5.03;;;;;;;23.38;52.12;98329.56;4443300;32;20106;-84
2023/05/31 04:34:08;;;;;;;12.20;4.55;;;;;;;24.24;49.98;98338.28;4457158;32;20089;-84
2023/05/31 04:36:37;;;;;;;11.38;4.95;;;;;;;24.31;49.29;98336.78;4456779;32;20114;-84
2023/05/31 04:39:09;;;;;;;9.40;4.47;;;;;;;24.07;50.37;98341.69;4442686;32;20092;-83
2023/05/31 04:41:36;;;;;;;10.70;5.00;;;;;;;24.25;50.41;98337.34;4457169;32;20081;-83
2023/05/31 04:44:03;;;;;;;11.40;5.10;;;;;;;24.57;49.60;98338.75;4456719;32;20105;-83
2023/05/31 04:46:30;;;;;;;13.20;5.12;;;;;;;24.26;50.08;98354.00;4457063;32;20088;-83
2023/05/31 04:48:57;;;;;;;12.40;4.80;;;;;;;23.94;51.38;98350.75;4456916;32;20439;-83
2023/05/31 04:51:24;;;;;;;10.63;4.95;;;;;;;24.31;50.26;98343.84;4456739;32;20085;-83
2023/05/31 04:53:51;;;;;;;13.48;5.35;;;;;;;24.83;50.19;98344.16;4456870;32;20153;-83
2023/05/31 04:56:18;;;;;;;10.23;4.68;;;;;;;24.19;51.93;98345.81;4457045;32;20107;-83
2023/05/31 04:58:46;;;;;;;13.80;5.15;;;;;;;23.27;53.05;98350.75;4456538;32;20140;-83
2023/05/31 05:01:14;;;;;;;10.25;4.78;;;;;;;23.52;52.35;98352.03;4456916;32;20145;-83
2023/05/31 05:03:41;;;;;;;12.75;5.32;;;;;;;24.32;49.47;98354.25;4456621;32;20109;-83
2023/05/31 05:06:15;;;;;;;11.18;5.37;;;;;;;23.35;51.68;98354.37;4442956;32;20169;-83
2023/05/31 05:08:43;;;;;;;11.98;5.28;;;;;;;23.61;51.22;98359.12;4456936;32;20093;-83
2023/05/31 05:11:11;;;;;;;12.57;5.90;;;;;;;23.41;51.65;98362.69;4456653;32;20073;-83
2023/05/31 05:13:38;;;;;;;10.85;5.80;;;;;;;23.03;53.13;98365.16;4456784;32;20548;-83
2023/05/31 05:16:05;;;;;;;13.75;5.35;;;;;;;23.30;52.43;98361.87;4456903;32;20114;-83
2023/05/31 05:18:32;;;;;;;14.52;5.70;;;;;;;23.35;52.85;98364.06;4455596;32;20439;-83
2023/05/31 05:21:00;;;;;;;11.85;5.12;;;;;;;23.94;51.24;98365.72;4456801;32;20123;-83
2023/05/31 05:23:27;;;;;;;11.52;5.72;;;;;;;24.88;50.16;98371.75;4456819;32;20109;-83
2023/05/31 05:25:54;;;;;;;12.35;5.32;;;;;;;24.46;52.45;98381.97;4456468;32;20164;-83
2023/05/31 05:28:22;;;;;;;10.07;5.10;;;;;;;24.73;51.01;98368.78;4456809;32;20159;-83
2023/05/31 05:30:50;;;;;;;14.10;6.47;;;;;;;24.34;50.71;98378.66;4456761;32;20166;-83
2023/05/31 05:33:17;;;;;;;11.63;4.97;;;;;;;24.16;51.36;98383.03;4456335;32;20120;-83
2023/05/31 05:35:44;;;;;;;10.45;5.35;;;;;;;24.43;50.98;98377.81;4456733;32;20153;-83
2023/05/31 05:38:11;;;;;;;13.85;5.18;;;;;;;23.72;53.72;98389.75;4456455;32;20105;-83
2023/05/31 05:40:38;;;;;;;12.07;5.25;;;;;;;22.98;55.47;98377.91;4456292;32;20073;-83
2023/05/31 05:43:05;;;;;;;11.57;4.78;;;;;;;22.59;57.50;98390.06;4456562;32;20154;-83
2023/05/31 05:45:32;;;;;;;11.52;5.18;;;;;;;22.37;57.49;98387.63;4456700;32;20108;-83
2023/05/31 05:47:59;;;;;;;12.00;5.57;;;;;;;22.29;57.41;98387.44;4456317;32;20108;-83
2023/05/31 05:50:26;;;;;;;11.88;4.97;;;;;;;22.02;58.31;98382.69;4456619;32;20077;-81
2023/05/31 05:52:53;;;;;;;12.90;4.87;;;;;;;21.27;60.70;98392.34;4456272;32;20169;-83
2023/05/31 05:55:20;;;;;;;11.18;4.87;;;;;;;21.18;61.61;98400.94;4456346;32;20119;-83
2023/05/31 05:57:47;;;;;;;13.55;5.20;;;;;;;21.74;59.80;98397.28;4456401;32;20119;-84
2023/05/31 06:00:15;;;;;;;10.25;4.78;;;;;;;21.33;62.91;98394.47;4456002;32;20168;-84
2023/05/31 06:02:42;;;;;;;11.25;4.95;;;;;;;22.08;60.00;98401.41;4456415;32;20476;-85
2023/05/31 06:05:09;;;;;;;11.80;4.60;;;;;;;21.57;61.83;98403.91;4456418;32;20740;-84
2023/05/31 06:07:36;;;;;;;11.43;4.93;;;;;;;21.89;59.51;98407.34;4455818;32;20107;-86
2023/05/31 06:10:04;;;;;;;15.00;5.22;;;;;;;22.67;56.71;98400.75;4455941;32;20093;-86
2023/05/31 06:12:31;;;;;;;14.95;5.18;;;;;;;22.31;60.24;98407.34;4455771;32;20097;-86
2023/05/31 06:14:58;;;;;;;11.10;4.60;;;;;;;23.12;57.79;98416.13;4455933;32;20109;-85
2023/05/31 06:17:25;;;;;;;13.43;5.37;;;;;;;24.15;54.24;98410.34;4456123;32;20149;-85
2023/05/31 06:19:52;;;;;;;10.43;4.25;;;;;;;24.39;53.04;98412.53;4455881;32;20085;-85
2023/05/31 06:22:19;;;;;;;12.63;4.68;;;;;;;24.35;53.67;98422.56;4456120;32;20443;-86
2023/05/31 06:24:57;;;;;;;9.02;4.32;;;;;;;25.23;51.32;98415.91;4456323;32;20127;-85
2023/05/31 06:27:38;;;;;;;11.20;4.18;;;;;;;26.06;47.75;98421.81;4456328;32;20088;-86
2023/05/31 06:30:05;;;;;;;11.50;4.25;;;;;;;22.69;53.37;98419.84;4456670;32;20089;-83
2023/05/31 06:32:32;;;;;;;12.07;4.72;;;;;;;23.09;53.15;98412.00;4456855;32;20181;-82
2023/05/31 06:34:59;;;;;;;11.38;4.18;;;;;;;22.94;54.56;98420.38;4455684;32;20092;-83
2023/05/31 06:37:27;;;;;;;10.90;4.62;;;;;;;21.40;58.36;98415.81;4456099;32;20089;-83
2023/05/31 06:39:54;;;;;;;11.02;4.60;;;;;;;22.11;56.52;98411.66;4455958;32;20505;-82
2023/05/31 06:42:21;;;;;;;10.15;4.30;;;;;;;22.85;53.87;98419.38;4455733;32;20116;-82
2023/05/31 06:44:48;;;;;;;9.55;4.10;;;;;;;22.63;56.63;98419.53;4456244;32;20114;-79
2023/05/31 06:47:22;;;;;;;10.30;4.10;;;;;;;22.94;55.44;98418.59;4456023;32;20466;-78
2023/05/31 06:49:49;;;;;;;8.25;3.80;;;;;;;23.09;53.02;98419.06;4455554;32;20085;-78
2023/05/31 06:52:16;;;;;;;9.02;4.32;;;;;;;23.89;50.04;98416.22;4459034;32;20115;-80
2023/05/31 06:54:44;;;;;;;10.25;4.35;;;;;;;23.59;54.50;98416.34;4456424;32;20511;-81
2023/05/31 06:57:10;;;;;;;9.88;3.72;;;;;;;23.66;53.96;98418.31;4456184;32;20159;-81
2023/05/31 06:59:37;;;;;;;11.90;4.40;;;;;;;24.17;50.60;98408.41;4460947;32;20062;-87
2023/05/31 07:02:05;;;;;;;12.32;4.10;;;;;;;24.72;49.33;98421.72;4456070;32;20149;-86
2023/05/31 07:04:32;;;;;;;9.25;3.60;;;;;;;24.52;48.96;98420.97;4455506;32;20122;-85
2023/05/31 07:06:59;;;;;;;9.30;3.72;;;;;;;23.23;46.62;98412.56;4456243;32;20089;-84
2023/05/31 07:09:26;;;;;;;9.88;4.00;;;;;;;22.73;49.19;98420.41;4442323;32;20106;-85
2023/05/31 07:11:53;;;;;;;10.25;3.30;;;;;;;23.35;47.94;98420.19;4455837;32;20148;-86
2023/05/31 07:14:21;;;;;;;10.18;3.87;;;;;;;23.37;47.67;98418.25;4457661;32;20566;-85
2023/05/31 07:16:48;;;;;;;10.00;3.80;;;;;;;22.87;48.78;98427.16;4459249;32;20057;-85
2023/05/31 07:19:16;;;;;;;11.57;3.65;;;;;;;23.05;46.78;98422.91;4458719;32;20097;-85
2023/05/31 07:21:43;;;;;;;9.40;3.30;;;;;;;23.53;47.60;98427.44;4456848;32;20149;-85
2023/05/31 07:24:10;;;;;;;10.90;3.55;;;;;;;23.55;45.43;98420.22;4459356;32;20479;-85
2023/05/31 07:26:37;;;;;;;8.10;3.33;;;;;;;23.90;45.24;98425.78;4458976;32;20144;-84
2023/05/31 07:29:04;;;;;;;10.57;3.47;;;;;;;24.00;44.99;98430.19;4456799;32;20102;-85
2023/05/31 07:31:31;;;;;;;9.80;3.78;;;;;;;23.34;45.52;98421.16;4447198;32;20073;-85
2023/05/31 07:33:58;;;;;;;11.27;4.22;;;;;;;23.87;44.88;98425.22;4460769;32;20494;-85
2023/05/31 07:36:25;;;;;;;9.82;3.42;;;;;;;24.02;45.40;98430.87;4456551;32;20157;-85
2023/05/31 07:38:52;;;;;;;8.00;3.47;;;;;;;24.93;44.08;98429.41;4455892;32;20144;-85
2023/05/31 07:41:19;;;;;;;12.63;3.92;;;;;;;24.46;43.84;98429.47;4457239;32;20157;-85
2023/05/31 07:43:46;;;;;;;16.30;3.87;;;;;;;25.09;44.23;98426.97;4455969;32;20345;-86
2023/05/31 07:46:13;;;;;;;10.45;3.90;;;;;;;25.39;43.22;98416.06;4456206;32;20088;-85
2023/05/31 07:48:44;;;;;;;9.45;3.53;;;;;;;24.35;45.08;98419.91;4461669;32;20083;-83
2023/05/31 07:51:11;;;;;;;9.63;2.72;;;;;;;24.16;43.55;98414.66;4463269;32;20122;-84
2023/05/31 07:53:39;;;;;;;8.25;3.37;;;;;;;24.50;42.11;98418.47;4461416;32;20164;-84
2023/05/31 07:56:07;;;;;;;11.27;3.60;;;;;;;24.63;43.99;98422.56;4463067;32;20071;-85
2023/05/31 07:58:36;;;;;;;12.00;2.83;;;;;;;24.64;42.70;98430.34;4464257;32;20132;-85
2023/05/31 08:01:03;;;;;;;14.50;3.72;;;;;;;24.15;45.07;98429.63;4456435;32;20101;-84
2023/05/31 08:03:31;;;;;;;10.25;3.50;;;;;;;24.88;43.94;98431.63;4455514;32;20111;-85
2023/05/31 08:05:58;;;;;;;9.98;3.37;;;;;;;25.14;41.98;98421.25;4455695;32;20436;-84
2023/05/31 08:08:27;;;;;;;7.85;2.67;;;;;;;24.67;42.72;98427.44;4455483;32;20108;-85
2023/05/31 08:10:54;;;;;;;8.80;3.83;;;;;;;25.57;41.47;98421.38;4444865;32;20086;-85
2023/05/31 08:13:23;;;;;;;9.60;3.80;;;;;;;24.97;42.76;98421.03;4456589;32;20140;-85
2023/05/31 08:15:51;;;;;;;9.75;3.75;;;;;;;24.87;43.17;98419.41;4455868;32;20432;-84
2023/05/31 08:18:19;;;;;;;9.63;3.10;;;;;;;25.30;42.39;98414.31;4455497;32;20081;-85
2023/05/31 08:20:45;;;;;;;11.52;3.67;;;;;;;24.41;44.32;98419.31;4455324;32;20112;-85
2023/05/31 08:23:20;;;;;;;8.57;3.58;;;;;;;25.42;43.08;98414.13;4454930;32;20097;-85
2023/05/31 08:25:48;;;;;;;11.25;3.55;;;;;;;25.84;40.04;98414.34;4454838;32;20093;-84
2023/05/31 08:28:14;;;;;;;11.75;4.12;;;;;;;25.43;41.33;98424.53;4454401;32;20107;-84
2023/05/31 08:30:41;;;;;;;9.07;3.53;;;;;;;25.94;41.21;98410.63;4454860;32;20123;-84
2023/05/31 08:33:11;;;;;;;9.20;3.53;;;;;;;26.28;40.24;98417.00;4454597;32;20158;-84
2023/05/31 08:35:39;;;;;;;8.90;3.72;;;;;;;26.22;40.65;98424.56;4440039;32;20454;-83
2023/05/31 08:38:06;;;;;;;10.98;4.37;;;;;;;26.61;39.89;98418.88;4454395;32;20109;-84
2023/05/31 08:40:33;;;;;;;13.77;3.80;;;;;;;26.33;39.98;98420.00;4454796;32;20707;-84
2023/05/31 08:43:04;;;;;;;12.13;3.85;;;;;;;25.95;39.76;98417.59;4458929;32;20452;-83
2023/05/31 08:45:34;;;;;;;8.35;3.90;;;;;;;25.59;40.61;98424.69;4440832;32;20110;-84
2023/05/31 08:48:33;;;;;;;11.15;3.80;;;;;;;26.25;40.74;98428.69;4454347;32;20081;-84
2023/05/31 08:51:01;;;;;;;14.32;4.00;;;;;;;26.63;40.39;98432.78;4426019;32;20110;-86
2023/05/31 08:53:29;;;;;;;14.13;3.87;;;;;;;26.41;41.56;98425.38;4440474;32;20124;-86
2023/05/31 08:55:58;;;;;;;11.27;3.90;;;;;;;27.45;37.82;98427.78;4442418;32;20111;-85
2023/05/31 08:58:25;;;;;;;8.43;2.17;;;;;;;26.42;39.77;98438.44;4456665;32;20371;-83
2023/05/31 09:00:52;;;;;;;10.90;4.62;;;;;;;26.71;38.30;98432.81;4456639;32;20093;-84
2023/05/31 09:03:19;;;;;;;9.75;3.58;;;;;;;26.54;40.25;98433.72;4456277;32;20404;-84
2023/05/31 09:05:47;;;;;;;13.80;3.80;;;;;;;26.72;39.54;98426.53;4456754;32;20171;-85
2023/05/31 09:08:14;;;;;;;8.93;3.58;;;;;;;26.64;39.19;98430.94;4456511;32;20080;-85
2023/05/31 09:10:41;;;;;;;9.27;4.10;;;;;;;27.15;40.45;98440.63;4456288;32;20444;-83
2023/05/31 09:13:08;;;;;;;10.23;4.20;;;;;;;26.90;38.27;98430.87;4456675;32;20483;-85
2023/05/31 09:15:36;;;;;;;10.50;3.80;;;;;;;27.51;38.03;98427.94;4456926;32;20080;-84
2023/05/31 09:18:16;;;;;;;13.45;4.18;;;;;;;26.90;39.80;98436.19;4456057;32;20152;-84
2023/05/31 09:20:46;;;;;;;13.23;4.72;;;;;;;26.85;40.74;98434.03;4442755;32;20173;-84
2023/05/31 09:23:17;;;;;;;11.63;3.90;;;;;;;27.69;39.56;98425.19;4456571;32;20466;-84
2023/05/31 09:25:47;;;;;;;9.07;3.30;;;;;;;27.48;36.87;98424.81;4456518;32;20164;-84
2023/05/31 09:28:15;;;;;;;9.95;4.37;;;;;;;28.23;37.33;98421.03;4456429;32;20127;-84
2023/05/31 09:30:42;;;;;;;10.52;4.15;;;;;;;27.35;37.68;98415.53;4456087;32;20121;-83
2023/05/31 09:33:10;;;;;;;8.57;3.70;;;;;;;26.47;40.52;98420.25;4456553;32;20383;-83
2023/05/31 09:35:39;;;;;;;7.78;3.60;;;;;;;27.22;39.05;98420.47;4456484;32;20454;-82
2023/05/31 09:38:34;;;;;;;9.65;3.70;;;;;;;27.63;38.49;98424.00;4453115;32;20069;-84
2023/05/31 09:41:17;;;;;;;8.23;2.97;;;;;;;27.04;37.72;98419.75;4456602;32;20164;-84
2023/05/31 09:43:48;;;;;;;9.15;4.05;;;;;;;27.04;38.39;98419.75;4442660;32;20108;-83
2023/05/31 09:46:22;;;;;;;10.18;4.10;;;;;;;26.81;38.58;98415.00;4456133;32;20081;-83
2023/05/31 09:49:06;;;;;;;11.65;4.70;;;;;;;27.04;38.42;98415.28;4456441;32;20150;-84
2023/05/31 09:51:34;;;;;;;10.95;4.15;;;;;;;27.49;37.64;98419.34;4456164;32;20444;-84
2023/05/31 09:54:07;;;;;;;10.63;4.37;;;;;;;28.64;37.26;98415.66;4456769;32;20111;-84
2023/05/31 09:56:38;;;;;;;9.88;3.90;;;;;;;28.64;37.79;98407.69;4456401;32;20089;-84
2023/05/31 09:59:05;;;;;;;9.63;4.15;;;;;;;27.96;39.97;98406.28;4455946;32;20089;-85
2023/05/31 10:01:33;;;;;;;10.70;4.20;;;;;;;29.02;37.32;98414.00;4456289;32;20111;-84
2023/05/31 10:04:04;;;;;;;9.10;4.07;;;;;;;28.32;37.58;98413.91;4456371;32;20123;-84
2023/05/31 10:06:34;;;;;;;12.50;4.22;;;;;;;26.65;40.52;98406.16;4455524;32;20089;-84
2023/05/31 10:09:03;;;;;;;10.15;4.20;;;;;;;27.46;38.62;98400.31;4456206;32;20085;-82
2023/05/31 10:11:37;;;;;;;12.32;4.20;;;;;;;27.36;40.06;98403.94;4442349;32;20097;-83
2023/05/31 10:14:13;;;;;;;10.07;4.18;;;;;;;27.37;40.79;98405.59;4441997;32;20153;-83
2023/05/31 10:16:49;;;;;;;10.05;4.22;;;;;;;27.47;40.05;98412.56;4442537;32;20146;-82
2023/05/31 10:19:24;;;;;;;10.10;4.10;;;;;;;27.78;37.42;98410.97;4456248;32;20081;-83
2023/05/31 10:21:51;;;;;;;17.55;4.50;;;;;;;27.62;39.54;98403.78;4442758;32;20101;-83
2023/05/31 10:24:26;;;;;;;11.10;4.30;;;;;;;27.57;38.68;98398.16;4456240;32;20229;-83
2023/05/31 10:27:12;;;;;;;12.05;4.22;;;;;;;28.44;38.13;98407.25;4456029;32;20097;-83
2023/05/31 10:29:43;;;;;;;14.98;4.47;;;;;;;28.30;37.57;98407.97;4442263;32;20453;-84
2023/05/31 10:32:20;;;;;;;11.63;4.43;;;;;;;28.18;37.33;98409.28;4429609;32;20125;-83
2023/05/31 10:34:47;;;;;;;11.10;4.32;;;;;;;27.95;39.07;98404.62;4455932;32;20135;-83
2023/05/31 10:37:14;;;;;;;11.50;4.10;;;;;;;28.16;37.51;98409.41;4456097;32;20084;-83
2023/05/31 10:39:49;;;;;;;13.18;5.22;;;;;;;27.55;36.07;98397.50;4455992;32;20084;-84
2023/05/31 10:42:33;;;;;;;13.27;3.83;;;;;;;28.21;35.57;98407.09;4441887;32;20153;-82
2023/05/31 10:45:21;;;;;;;10.30;5.07;;;;;;;28.92;35.39;98405.44;4442357;32;20177;-83
2023/05/31 10:48:17;;;;;;;12.25;4.43;;;;;;;28.09;37.61;98407.63;4442152;32;20124;-82
2023/05/31 10:51:00;;;;;;;11.23;4.07;;;;;;;28.29;36.21;98406.31;4426689;32;20160;-82
2023/05/31 10:53:34;;;;;;;11.57;4.50;;;;;;;28.17;39.37;98407.59;4442225;32;20109;-82
2023/05/31 10:56:04;;;;;;;10.63;4.03;;;;;;;28.44;35.63;98401.13;4455802;32;20590;-82
2023/05/31 10:58:39;;;;;;;7.10;2.78;;;;;;;28.68;36.25;98409.00;4442043;32;20093;-82
2023/05/31 11:01:08;;;;;;;16.17;4.90;;;;;;;28.91;34.32;98398.47;4455833;32;20460;-82
2023/05/31 11:03:36;;;;;;;10.20;4.55;;;;;;;29.15;35.76;98394.06;4455691;32;20096;-83
2023/05/31 11:06:08;;;;;;;10.07;4.28;;;;;;;29.18;34.10;98397.19;4442552;32;20116;-82
2023/05/31 11:08:36;;;;;;;9.63;4.53;;;;;;;28.60;35.06;98386.94;4455451;32;20115;-83
2023/05/31 11:11:30;;;;;;;10.30;4.32;;;;;;;29.29;33.77;98394.13;4455865;32;20107;-83
2023/05/31 11:14:03;;;;;;;10.20;4.78;;;;;;;28.98;33.82;98380.03;4441774;32;20169;-82
2023/05/31 11:16:33;;;;;;;13.02;4.50;;;;;;;28.85;34.54;98388.53;4454380;32;20101;-85
2023/05/31 11:19:08;;;;;;;9.75;4.57;;;;;;;29.76;32.23;98377.16;4455704;32;20148;-83
2023/05/31 11:21:55;;;;;;;10.88;4.50;;;;;;;28.61;33.67;98378.84;4441899;32;20443;-82
2023/05/31 11:24:25;;;;;;;9.98;4.78;;;;;;;29.31;35.42;98376.16;4455368;32;20088;-85
2023/05/31 11:26:53;;;;;;;10.02;4.53;;;;;;;28.41;36.86;98378.41;4455732;32;20142;-85
2023/05/31 11:29:20;;;;;;;10.40;4.32;;;;;;;29.22;33.81;98373.72;4455254;32;20179;-85
2023/05/31 11:31:58;;;;;;;10.57;3.85;;;;;;;28.09;38.58;98367.84;4455440;32;20132;-83
2023/05/31 11:34:33;;;;;;;10.23;4.85;;;;;;;28.00;38.50;98372.31;4455510;32;20105;-83
2023/05/31 11:37:02;;;;;;;10.48;4.68;;;;;;;28.25;36.60;98371.28;4441356;32;20158;-84